Deerton, Michigan
Current Conditions -  °F | °C
As of 10:17 PM on Thursday 27 Nov 2014 (Local Time) from KSAW Reporting Station
Scattered Clouds Scattered Clouds  
Wind Chill: -13°   Ceiling: Unl
Heat Index:   Visibility: 10mi
Dew Point: -2°   Wind: 9mph
Humidity: 83%   Direction: 280°W
Pressure: 30.26"   Gusts: NA
Location:  46.47°N, 87.04°W
Report Text: KSAW 280317Z AUTO 28008KT 10SM SCT027 M17/M19 A3026 RMK AO2 T11681191
Loading
Personal Weather Stations






























Interactive Weather Map New forecast layout! Learn more

10-Day Weather Forecast

Advertisements
Track Severe Weather on mobile